Terminal Aerodrome Forecast
Issued by NWS

Home | Current Version | Previous Version | Text Only | Print | Product List | Glossary On
Versions: 1 2 3 4 5 6 7 8 9 10 11 12 13 14
000
FTUS46 KOTX 191736
TAFPUW
TAF
KPUW 191736Z 1918/2018 13008KT P6SM SCT070 OVC100
     FM192100 21009KT P6SM SCT070 OVC100
     FM200000 24012G18KT P6SM SCT040 BKN070 OVC100
     FM200500 25012KT P6SM -RA SCT030 OVC045
     FM200900 24017G24KT 5SM RA BR BKN030 OVC040
     FM201200 24006G30KT P6SM VCSH BKN035 OVC045=

USA.gov is the U.S. government's official web portal to all federal, state and local government web resources and services.